createdAt,value
2023-04-11T00:01:16.410Z,8.974606672610753
2023-04-11T00:04:17.595Z,8.861567604774972
2023-04-11T00:07:16.759Z,8.735041087967057
2023-04-11T00:11:16.501Z,8.675952622805289
2023-04-11T00:14:18.739Z,8.620717788003912
2023-04-11T00:17:17.943Z,8.582824141719902
2023-04-11T00:21:16.721Z,8.52245124644287
2023-04-11T00:24:16.940Z,8.417762172222229
2023-04-11T00:27:16.986Z,8.453086692962462
2023-04-11T00:31:16.935Z,8.219302847804283
2023-04-11T00:34:17.695Z,8.267472546836597
2023-04-11T00:37:18.327Z,8.228936785564382
2023-04-11T00:41:15.849Z,8.164068291062723
2023-04-11T00:44:16.176Z,8.116540908694514
2023-04-11T00:47:16.600Z,7.99579577899749
2023-04-11T00:51:18.014Z,7.893676353266438
2023-04-11T00:54:17.497Z,7.87633533012704
2023-04-11T00:57:17.576Z,7.8814734107116236
2023-04-11T01:01:16.984Z,7.830092617962509
2023-04-11T01:04:17.903Z,7.759444075453575
2023-04-11T01:07:17.962Z,7.697144951804603
2023-04-11T01:11:18.727Z,7.619431671971688
2023-04-11T01:14:19.459Z,7.581538443968839
2023-04-11T01:17:17.262Z,7.615578122638181
2023-04-11T01:21:19.088Z,7.569335543405396
2023-04-11T01:24:16.868Z,7.507678807765842
2023-04-11T01:27:16.685Z,7.499971718757661
2023-04-11T01:31:16.560Z,7.473639169587204
2023-04-11T01:34:19.990Z,7.467216597778406
2023-04-11T01:37:16.998Z,7.292522818983798
2023-04-11T01:41:17.050Z,7.221232439742016
2023-04-11T01:44:17.294Z,7.247564915639032
2023-04-11T01:47:16.727Z,7.209029587650093
2023-04-11T01:51:16.105Z,7.111406830013675
2023-04-11T01:54:16.296Z,7.054888439403385
2023-04-11T01:57:16.308Z,7.095992719991136
2023-04-11T02:01:17.718Z,6.992589799646521
2023-04-11T02:04:17.382Z,6.991305292060497
2023-04-11T02:07:17.116Z,6.927079935951406
2023-04-11T02:11:15.833Z,6.902674312553427
2023-04-11T02:14:18.759Z,6.963046129770009
2023-04-11T02:17:18.067Z,6.848082810303549
2023-04-11T02:21:16.064Z,6.848725063080201
2023-04-11T02:24:16.804Z,6.817896934930468
2023-04-11T02:27:16.543Z,6.767801249033437
2023-04-11T02:31:16.059Z,6.7247703614420065
2023-04-11T02:34:16.489Z,6.738899904370283
2023-04-11T02:37:16.165Z,6.763305483703244
2023-04-11T02:41:15.832Z,6.701649295943298
2023-04-11T02:44:17.852Z,6.676601481637045
2023-04-11T02:47:16.220Z,6.643204406654695
2023-04-11T02:51:16.754Z,6.622010115447575
2023-04-11T02:54:17.191Z,6.623294617804004
2023-04-11T02:57:17.971Z,6.58925531150453
2023-04-11T03:01:19.104Z,6.576410293579102
2023-04-11T03:04:16.928Z,6.526314741050373
2023-04-11T03:07:17.032Z,6.469796715001939
2023-04-11T03:11:16.082Z,6.368963505988449
2023-04-11T03:14:16.366Z,6.430619467611632
2023-04-11T03:17:16.270Z,6.417132222425425
2023-04-11T03:21:16.294Z,6.3972224831967655
2023-04-11T03:24:16.502Z,6.320794815131012
2023-04-11T03:27:16.284Z,6.32464830945828
2023-04-11T03:31:18.238Z,6.278406388335862
2023-04-11T03:34:18.217Z,6.2687726577359175
2023-04-11T03:37:16.891Z,6.25014744814398
2023-04-11T03:41:16.217Z,6.144818748626858
2023-04-11T03:44:16.473Z,6.245651708470632
2023-04-11T03:47:16.416Z,6.286113373552507
2023-04-11T03:51:16.856Z,6.241798217499399
2023-04-11T03:54:17.041Z,6.199409827620639
2023-04-11T03:57:17.027Z,6.207759054363487
2023-04-11T04:01:16.250Z,6.117844345252161
2023-04-11T04:04:16.728Z,6.148672235478079
2023-04-11T04:07:18.287Z,6.151241226803177
2023-04-11T04:11:16.823Z,6.082520733915681
2023-04-11T04:14:17.024Z,6.0227917496788
2023-04-11T04:17:17.058Z,6.065822304254198
2023-04-11T04:21:16.958Z,6.066464551492027
2023-04-11T04:24:17.073Z,6.103714899066835
2023-04-11T04:27:19.110Z,6.065180057020916
2023-04-11T04:31:22.715Z,6.085731970741472
2023-04-11T04:34:22.056Z,6.008662318300049
2023-04-11T04:37:23.492Z,5.917463314169799
2023-04-11T04:41:16.656Z,5.898838176714435
2023-04-11T04:44:17.270Z,5.776169263499105
2023-04-11T04:47:18.165Z,5.744057009951211
2023-04-11T04:51:16.043Z,5.742772520045764
2023-04-11T04:54:19.458Z,5.757544155056621
2023-04-11T04:57:16.416Z,5.722862928837367
2023-04-11T05:01:17.258Z,5.726074152930233
2023-04-11T05:04:17.567Z,5.7723157924730915
2023-04-11T05:07:17.137Z,5.74726823479441
2023-04-11T05:11:16.471Z,5.711944767772001
2023-04-11T05:14:16.878Z,5.729285377136785
2023-04-11T05:17:17.629Z,5.699099874083549
2023-04-11T05:21:17.023Z,5.747910479776692
2023-04-11T05:24:16.922Z,5.769746811880031
2023-04-11T05:27:17.509Z,5.783233960805319
2023-04-11T05:31:17.296Z,5.773600282796906
2023-04-11T05:34:16.874Z,5.814703982763239
2023-04-11T05:37:17.063Z,5.817915210107548
2023-04-11T05:41:16.505Z,5.788371922828174
2023-04-11T05:44:16.597Z,5.826906647276428
2023-04-11T05:47:16.499Z,5.87571732174556
2023-04-11T05:51:17.106Z,5.975265489245066
2023-04-11T05:54:31.248Z,5.997744122833046
2023-04-11T05:57:17.844Z,6.102430404068218
2023-04-11T06:01:18.737Z,6.175004400009584
2023-04-11T06:04:17.210Z,6.279048637078904
2023-04-11T06:07:17.295Z,6.291893612894728
2023-04-11T06:11:17.177Z,6.407498477091667
2023-04-11T06:14:17.209Z,6.457593964000353
2023-04-11T06:17:17.079Z,6.5365907495699505
2023-04-11T06:21:16.703Z,6.686877507182362
2023-04-11T06:24:33.129Z,6.742753416459982
2023-04-11T06:27:16.765Z,6.8756996838059425
2023-04-11T06:31:15.876Z,6.945063031078098
2023-04-11T06:34:16.495Z,7.0381898307351545
2023-04-11T06:37:17.224Z,7.081863121438164
2023-04-11T06:41:16.594Z,7.191688695396079
2023-04-11T06:44:17.014Z,7.336838488373905
2023-04-11T06:47:17.486Z,7.420974094179201
2023-04-11T06:51:17.092Z,7.551994582270799
2023-04-11T06:54:17.711Z,7.710632387316219
2023-04-11T06:57:18.909Z,7.81853194360483
2023-04-11T07:01:16.474Z,7.978454736335789
2023-04-11T07:04:17.376Z,8.092777226848648
2023-04-11T07:07:18.438Z,8.225083210337562
2023-04-11T07:11:16.677Z,8.382437665238104
2023-04-11T07:14:16.705Z,8.508963690223117
2023-04-11T07:17:16.813Z,8.62392911468778
2023-04-11T07:21:16.658Z,8.855787201682778
2023-04-11T07:24:18.987Z,9.033695332313437
2023-04-11T07:27:17.779Z,9.166644957372863
2023-04-11T07:31:19.750Z,9.336846452596728
2023-04-11T07:34:16.977Z,9.508332810377851
2023-04-11T07:37:19.615Z,9.642567676189719
2023-04-11T07:41:18.637Z,9.801209137335627
2023-04-11T07:44:17.784Z,9.980403672067041
2023-04-11T07:47:17.752Z,10.102435995106134
2023-04-11T07:51:17.494Z,10.343289746010214
2023-04-11T07:54:18.675Z,10.46146888698795
2023-04-11T07:57:17.728Z,10.618827221292667
2023-04-11T08:01:23.731Z,10.7537060108094
2023-04-11T08:04:19.107Z,10.899503785029902
2023-04-11T08:07:17.778Z,10.969512491166824
2023-04-11T08:11:16.787Z,11.157701299330892
2023-04-11T08:14:16.961Z,11.263035819705056
2023-04-11T08:17:27.093Z,11.371581886342392
2023-04-11T08:21:16.484Z,11.503892652090872
2023-04-11T08:24:17.913Z,11.588674409258237
2023-04-11T08:27:16.890Z,11.684375124290181
2023-04-11T08:31:16.158Z,11.81797092216666
2023-04-11T08:34:16.976Z,11.93101367403806
2023-04-11T08:37:16.687Z,12.146822955129846
2023-04-11T08:41:16.634Z,12.28620005535231
2023-04-11T08:44:16.905Z,12.354282956350653
2023-04-11T08:47:16.806Z,12.38703984201793
2023-04-11T08:51:22.169Z,12.595784979512974
2023-04-11T08:54:17.343Z,12.667079582666428
2023-04-11T08:57:22.260Z,12.735162769509861
2023-04-11T09:01:32.981Z,12.824441742897033
2023-04-11T09:04:17.039Z,12.87325618276518
2023-04-11T09:07:17.590Z,12.898305708158386
2023-04-11T09:11:17.042Z,12.97987728750195
2023-04-11T09:14:17.011Z,13.099986754375369
2023-04-11T09:17:17.355Z,13.154582019159353
2023-04-11T09:21:18.132Z,13.249642088014298
2023-04-11T09:24:17.276Z,13.345986854030343
2023-04-11T09:27:17.494Z,13.390947779853377
2023-04-11T09:31:16.544Z,13.491146494707573
2023-04-11T09:34:22.904Z,13.512342390877256
2023-04-11T09:37:16.904Z,13.57721470992692
2023-04-11T09:41:29.329Z,13.692828858882422
2023-04-11T09:44:16.615Z,13.851477403091213
2023-04-11T09:47:16.582Z,13.91121154223947
2023-04-11T09:51:31.737Z,13.992784032346481
2023-04-11T09:54:20.419Z,14.110967927653201
2023-04-11T09:57:18.643Z,14.2330058072047
2023-04-11T10:01:18.258Z,14.401289889324925
2023-04-11T10:04:16.894Z,14.48800127487375
2023-04-11T10:07:18.612Z,14.663993527018466
2023-04-11T10:11:18.997Z,14.82713993430698
2023-04-11T10:14:41.976Z,14.991571255834788
2023-04-11T10:17:21.978Z,15.124529612643618
2023-04-11T10:21:37.812Z,15.235007236086767
2023-04-11T10:24:18.380Z,15.341631116519512
2023-04-11T10:51:22.811Z,16.397599686145348
2023-04-11T10:54:24.346Z,16.638470150719876
2023-04-11T10:57:17.401Z,16.761796076110112
2023-04-11T11:01:26.637Z,16.861356190254536
2023-04-11T11:04:18.113Z,17.005236806307312
2023-04-11T11:07:17.652Z,17.19279580910743
2023-04-11T11:11:16.861Z,17.31869179558862
2023-04-11T11:14:27.760Z,17.425960452518485
2023-04-11T11:17:17.747Z,17.597462101624934
2023-04-11T11:31:16.745Z,18.24750125772416
2023-04-11T11:34:26.796Z,18.336785655783387
2023-04-11T11:37:16.581Z,18.507646691263652
2023-04-11T11:41:17.130Z,18.754946128284153
2023-04-11T11:44:25.855Z,18.884698310300973
2023-04-11T11:47:17.393Z,19.020231728270666
2023-04-11T11:51:17.041Z,19.098597114445873
2023-04-11T11:54:17.404Z,19.344613479672354
2023-04-11T11:57:20.382Z,19.478862900246167
2023-04-11T12:01:17.582Z,19.72295326474268
2023-04-11T12:04:19.357Z,19.87261952351846
2023-04-11T12:07:20.813Z,19.926576518557795
2023-04-11T12:11:17.313Z,20.01714726093669
2023-04-11T12:14:22.224Z,20.040914066464847
2023-04-11T12:17:17.112Z,20.058899761273004
2023-04-11T12:21:18.014Z,20.14047777891137
2023-04-11T12:24:17.467Z,19.988241695035775
2023-04-11T12:27:17.334Z,19.995949845042286
2023-04-11T12:31:16.690Z,20.162959922648678
2023-04-11T12:34:17.821Z,20.16938339331109
2023-04-11T12:37:16.826Z,20.158463493455564
2023-04-11T12:41:31.658Z,20.06789261001404
2023-04-11T12:44:16.200Z,20.30427638226838
2023-04-11T12:47:16.560Z,20.3473137114197
2023-04-11T12:51:16.774Z,20.335109093616573
2023-04-11T12:54:17.134Z,20.313269255329306
2023-04-11T12:57:17.372Z,20.370438254917097
2023-04-11T13:01:17.834Z,20.19058084972348
2023-04-11T13:04:17.388Z,20.249676814960548
2023-04-11T13:07:17.366Z,20.333824397101218
2023-04-11T13:11:16.677Z,20.396132199048587
2023-04-11T13:14:17.205Z,20.355664240336136
2023-04-11T13:17:17.024Z,20.470002328955978
2023-04-11T13:21:16.829Z,20.41283326663579
2023-04-11T13:24:17.355Z,20.54066077035977
2023-04-11T13:27:17.348Z,20.618385119457162
2023-04-11T13:31:16.146Z,20.51111268816976
2023-04-11T13:34:16.829Z,20.55286541581154
2023-04-11T13:37:16.390Z,20.562500663380433
2023-04-11T13:41:16.511Z,20.61260396723237
2023-04-11T13:44:16.845Z,20.637013279131587
2023-04-11T13:47:16.746Z,20.76098699093709
2023-04-11T13:51:16.566Z,20.78796574859043
2023-04-11T13:54:16.739Z,20.840638584271073
2023-04-11T13:57:16.701Z,20.75456347839245
2023-04-11T14:01:18.263Z,20.690970728736374
2023-04-11T14:04:17.788Z,20.699321289280487
2023-04-11T14:07:17.340Z,20.76034463966216
2023-04-11T14:11:16.481Z,20.890099689515864
2023-04-11T14:14:16.920Z,20.935706706556083
2023-04-11T14:17:16.831Z,21.0070078636375
2023-04-11T14:21:16.756Z,20.999941980704897
2023-04-11T14:24:16.930Z,21.013431394053715
2023-04-11T14:27:17.163Z,20.984525510761888
2023-04-11T14:31:16.988Z,21.010861981832658
2023-04-11T14:34:19.040Z,21.073812602194174
2023-04-11T14:37:17.154Z,21.069958481325102
2023-04-11T14:41:16.140Z,21.24146701844875
2023-04-11T14:44:17.133Z,21.189436304391073
2023-04-11T14:47:16.398Z,21.209991644651108
2023-04-11T14:51:16.596Z,21.26394943498899
2023-04-11T14:54:17.201Z,21.193932784675052
2023-04-11T14:57:17.052Z,21.245321146602873
2023-04-11T15:01:18.092Z,21.323046099318255
2023-04-11T15:04:17.543Z,21.29992131304034
2023-04-11T15:07:18.702Z,21.351952090453416
2023-04-11T15:11:17.014Z,21.266518854376862
2023-04-11T15:14:16.940Z,21.272300048265606
2023-04-11T15:17:16.833Z,21.144471513806728
2023-04-11T15:21:16.509Z,21.0487608194715
2023-04-11T15:24:18.621Z,21.014073747120346
2023-04-11T15:27:17.035Z,21.005723157608827
2023-04-11T15:31:23.746Z,20.9080855526533
2023-04-11T15:34:18.464Z,20.94662669995314
2023-04-11T15:37:17.384Z,20.835499769687885
2023-04-11T15:41:16.979Z,20.7365776456867
2023-04-11T15:44:17.128Z,20.76098699093709
2023-04-11T15:47:19.131Z,20.698036587608293
2023-04-11T15:51:17.640Z,20.613246317461382
2023-04-11T15:54:18.154Z,20.592048762305147
2023-04-11T15:57:20.036Z,20.573420611862094
2023-04-11T16:01:19.160Z,20.478352869163793
2023-04-11T16:04:20.547Z,20.389708712333594
2023-04-11T16:07:18.741Z,20.38135818028395
2023-04-11T16:11:16.646Z,20.173879823045354
2023-04-11T16:14:16.976Z,20.14112012579799
2023-04-11T16:17:21.072Z,20.06403853187303
2023-04-11T16:21:18.016Z,19.902809742979297
2023-04-11T16:24:17.021Z,19.90088270739443
2023-04-11T16:27:18.703Z,19.823801317560083
2023-04-11T16:31:25.673Z,19.803888635829573
2023-04-11T16:34:17.449Z,19.698544198743548
2023-04-11T16:37:17.305Z,19.691478417706186
2023-04-11T16:41:18.211Z,19.528323263161383
2023-04-11T16:44:18.360Z,19.46280434665614
2023-04-11T16:47:17.895Z,19.39664313584217
2023-04-11T16:51:18.593Z,19.29258385333851
2023-04-11T16:54:17.063Z,19.163473427982627
2023-04-11T16:57:19.972Z,19.12107900002311
2023-04-11T17:01:16.868Z,18.98618777011952
2023-04-11T17:04:18.612Z,18.990041802476572
2023-04-11T17:07:19.804Z,18.88534064829728
2023-04-11T17:11:18.896Z,18.83844998651775
2023-04-11T17:31:20.595Z,18.295033947912543
2023-04-11T17:34:18.368Z,18.198041593018935
2023-04-11T17:37:17.548Z,18.149224288060577
2023-04-11T17:41:16.037Z,17.935327722063903
2023-04-11T17:44:16.505Z,17.90064183995937
2023-04-11T17:51:17.197Z,17.597462101624934
2023-04-11T17:54:17.439Z,17.54479114868018
2023-04-11T17:57:18.288Z,17.518455683674254
2023-04-11T18:01:16.535Z,17.436237695768067
2023-04-11T18:04:20.321Z,17.364297017468196
2023-04-11T18:11:16.273Z,17.124066951428905
2023-04-11T18:14:16.775Z,17.04955722061313
2023-04-11T18:17:17.021Z,16.939719711774615
2023-04-11T18:21:16.626Z,16.86071386658732
2023-04-11T18:24:17.053Z,16.736103161162827
2023-04-11T18:27:17.021Z,16.734176192835093
2023-04-11T18:31:16.730Z,16.63461621825263
2023-04-11T18:34:16.912Z,16.590296006645893
2023-04-11T18:37:16.407Z,16.55689528177036
2023-04-11T18:41:16.783Z,16.405949851550396
2023-04-11T18:44:16.522Z,16.30703255689332
2023-04-11T18:47:17.422Z,16.245369882326123
2023-04-11T19:01:17.671Z,15.90237201997661
2023-04-11T19:04:17.030Z,15.895948851402864
2023-04-11T19:07:17.182Z,15.96274982679788
2023-04-11T19:11:17.364Z,15.891452633671815
2023-04-11T19:14:16.596Z,15.795105164410142
2023-04-11T19:17:17.668Z,15.69940011290746
2023-04-11T19:21:16.975Z,15.647372576933503
2023-04-11T19:24:20.502Z,15.646087946793068
2023-04-11T19:27:19.372Z,15.669853607335607
2023-04-11T19:31:16.857Z,15.628103126736914
2023-04-11T19:34:23.549Z,15.593418126696724
2023-04-11T19:37:19.897Z,15.521478909627422
2023-04-11T19:41:17.811Z,15.539463708546918
2023-04-11T19:44:17.630Z,15.514413453884481
2023-04-11T19:47:17.223Z,15.461101396472895
2023-04-11T19:51:18.842Z,15.333923361924917
2023-04-11T19:54:18.243Z,15.21766480955157
2023-04-11T19:57:18.190Z,15.267122849535463
2023-04-11T20:01:17.349Z,15.096267916628221
2023-04-11T20:04:22.046Z,15.0769985834836
2023-04-11T20:07:16.766Z,15.07507165039424
2023-04-11T20:11:18.061Z,14.971659634634216
2023-04-11T20:14:16.892Z,14.938901815716235
2023-04-11T20:17:18.021Z,14.866963117640989
2023-04-11T20:21:16.826Z,14.75648594237864
2023-04-11T20:24:18.313Z,14.692897396689023
2023-04-11T20:27:17.266Z,14.630593511312327
2023-04-11T20:31:17.319Z,14.500847413114752
2023-04-11T20:34:17.363Z,14.48992819549394
2023-04-11T20:37:18.897Z,14.408355258379379
2023-04-11T20:41:19.594Z,14.331278534798548
2023-04-11T20:44:18.179Z,14.249705740333685
2023-04-11T20:47:17.328Z,14.146936969827312
2023-04-11T20:51:17.931Z,14.03902988608761
2023-04-11T20:54:16.940Z,13.985718695656397
2023-04-11T20:57:24.551Z,13.908642331144074
2023-04-11T21:01:16.946Z,13.798166322872566
2023-04-11T21:04:19.102Z,13.818077686517881
2023-04-11T21:07:18.552Z,13.677413630508818
2023-04-11T21:11:16.995Z,13.58941841869464
2023-04-11T21:14:17.291Z,13.558587999709653
2023-04-11T21:17:17.424Z,13.47637360030576
2023-04-11T21:21:16.807Z,13.361402026088035
2023-04-11T21:24:16.808Z,13.421135842552122
2023-04-11T21:27:16.955Z,13.301668248955048
2023-04-11T21:31:16.884Z,13.20981961461366
2023-04-11T21:34:17.065Z,13.076864063900667
2023-04-11T21:37:17.122Z,13.096132972220312
2023-04-11T21:41:16.659Z,13.020341956440188
2023-04-11T21:44:16.958Z,12.94198182025948
2023-04-11T21:47:17.312Z,12.916289987065193
2023-04-11T21:51:16.885Z,12.818018792238217
2023-04-11T21:54:17.219Z,12.853987321784734
2023-04-11T21:57:17.176Z,12.699836581279305
2023-04-11T22:01:17.765Z,12.644599296344676
2023-04-11T22:04:17.920Z,12.586792871382567
2023-04-11T22:07:18.402Z,12.424292785190573
2023-04-11T22:11:17.428Z,12.437780923559695
2023-04-11T22:14:17.037Z,12.250874041949373
2023-04-11T22:17:16.694Z,12.261792990077812
2023-04-11T22:21:19.947Z,12.221328659485243
2023-04-11T22:24:16.853Z,12.176368313328657
2023-04-11T22:27:18.496Z,12.11727760655349
2023-04-11T22:31:16.385Z,12.026072460778323
2023-04-11T22:34:16.778Z,12.000380886971925
2023-04-11T22:37:16.766Z,11.995884862303864
2023-04-11T22:41:17.120Z,11.85586591988249
2023-04-11T22:44:17.369Z,11.810905754851774
2023-04-11T22:47:17.060Z,11.719700917095178
2023-04-11T22:51:16.568Z,11.649691632010308
2023-04-11T22:54:16.580Z,11.525088083954415
2023-04-11T22:57:16.556Z,11.539218374614666
2023-04-11T23:01:16.438Z,11.464070945012281
2023-04-11T23:04:16.790Z,11.429387536960713
2023-04-11T23:07:17.339Z,11.294507742816132
2023-04-11T23:11:16.010Z,11.271385512527559
2023-04-11T23:14:18.402Z,11.130083122154247
2023-04-11T23:17:16.412Z,11.166693265807499
2023-04-11T23:21:16.558Z,11.077415923867374
2023-04-11T23:24:17.322Z,11.004195723394878
2023-04-11T23:27:17.328Z,11.018968215222504
2023-04-11T23:31:18.241Z,11.026033320860005
2023-04-11T23:34:16.745Z,10.957951416704237
2023-04-11T23:37:17.279Z,10.903357473870802
2023-04-11T23:41:16.006Z,10.853901812843105
2023-04-11T23:44:16.640Z,10.8108689868729
2023-04-11T23:47:16.338Z,10.803161617212846
2023-04-11T23:51:16.949Z,10.803161617212846
2023-04-11T23:54:17.219Z,10.711957792624252
2023-04-11T23:57:17.180Z,10.629745972983892
